createdAt,value
2018-06-01T00:02:20.753Z,6.03
2018-06-01T00:04:48.248Z,5.30
2018-06-01T00:07:16.625Z,5.97
2018-06-01T00:09:44.392Z,5.23
2018-06-01T00:12:13.384Z,5.23
2018-06-01T00:14:42.345Z,5.57
2018-06-01T00:17:10.133Z,5.37
2018-06-01T00:19:39.100Z,4.27
2018-06-01T00:22:06.894Z,4.60
2018-06-01T00:24:35.178Z,4.03
2018-06-01T00:27:02.645Z,3.20
2018-06-01T00:29:30.109Z,2.77
2018-06-01T00:31:57.576Z,2.57
2018-06-01T00:34:25.097Z,2.10
2018-06-01T00:36:54.089Z,2.10
2018-06-01T00:39:21.555Z,1.50
2018-06-01T00:41:50.846Z,1.40
2018-06-01T00:44:18.473Z,1.00
2018-06-01T00:46:45.931Z,1.20
2018-06-01T00:49:13.530Z,0.93
2018-06-01T00:51:41.189Z,0.90
2018-06-01T00:54:08.659Z,0.90
2018-06-01T00:56:36.118Z,0.90
2018-06-01T00:59:03.598Z,0.80
2018-06-01T01:01:31.045Z,1.03
2018-06-01T01:03:58.521Z,0.73
2018-06-01T01:06:25.974Z,0.83
2018-06-01T01:08:53.433Z,0.70
2018-06-01T01:11:20.893Z,0.70
2018-06-01T01:13:48.358Z,0.80
2018-06-01T01:16:15.849Z,0.70
2018-06-01T01:18:43.617Z,2.40
2018-06-01T01:21:11.193Z,1.00
2018-06-01T01:23:39.405Z,0.70
2018-06-01T01:26:06.879Z,0.70
2018-06-01T01:28:34.537Z,0.83
2018-06-01T01:31:02.140Z,1.00
2018-06-01T01:33:29.788Z,0.90
2018-06-01T01:35:58.273Z,1.27
2018-06-01T01:38:26.037Z,0.60
2018-06-01T01:40:59.303Z,0.80
2018-06-01T01:43:26.762Z,0.60
2018-06-01T01:45:54.566Z,0.63
2018-06-01T01:48:22.029Z,0.60
2018-06-01T01:50:49.768Z,0.67
2018-06-01T01:53:17.529Z,0.60
2018-06-01T01:55:45.174Z,0.70
2018-06-01T01:58:12.760Z,0.70
2018-06-01T02:00:40.236Z,0.60
2018-06-01T02:03:07.902Z,0.80
2018-06-01T02:05:35.370Z,0.50
2018-06-01T02:08:02.838Z,0.90
2018-06-01T02:10:30.346Z,0.60
2018-06-01T02:12:57.985Z,1.20
2018-06-01T02:15:25.444Z,0.70
2018-06-01T02:17:52.913Z,0.77
2018-06-01T02:20:20.505Z,0.70
2018-06-01T02:22:48.721Z,0.70
2018-06-01T02:25:16.270Z,0.60
2018-06-01T02:27:43.734Z,0.80
2018-06-01T02:30:11.194Z,0.80
2018-06-01T02:32:38.661Z,0.80
2018-06-01T02:35:06.325Z,0.80
2018-06-01T02:37:33.901Z,0.70
2018-06-01T02:40:01.350Z,0.80
2018-06-01T02:42:29.007Z,0.70
2018-06-01T02:44:56.573Z,0.80
2018-06-01T02:47:24.239Z,0.80
2018-06-01T02:49:51.809Z,0.70
2018-06-01T02:52:19.570Z,0.63
2018-06-01T02:54:47.025Z,0.73
2018-06-01T02:57:14.664Z,0.60
2018-06-01T02:59:42.134Z,1.00
2018-06-01T03:02:09.702Z,0.60
2018-06-01T03:04:37.357Z,0.87
2018-06-01T03:07:12.298Z,0.80
2018-06-01T03:09:39.762Z,0.70
2018-06-01T03:12:07.277Z,0.70
2018-06-01T03:14:34.913Z,0.70
2018-06-01T03:17:02.429Z,0.80
2018-06-01T03:19:29.893Z,0.90
2018-06-01T03:21:57.345Z,0.87
2018-06-01T03:24:24.818Z,0.90
2018-06-01T03:26:52.566Z,0.80
2018-06-01T03:29:20.023Z,0.90
2018-06-01T03:31:47.785Z,0.93
2018-06-01T03:34:15.233Z,0.90
2018-06-01T03:36:42.702Z,0.90
2018-06-01T03:39:10.165Z,0.70
2018-06-01T03:41:37.818Z,0.90
2018-06-01T03:44:05.377Z,0.80
2018-06-01T03:46:33.138Z,0.80
2018-06-01T03:49:00.909Z,0.93
2018-06-01T03:51:28.476Z,1.17
2018-06-01T03:53:56.127Z,1.00
2018-06-01T03:56:23.785Z,1.07
2018-06-01T03:58:51.233Z,0.90
2018-06-01T04:01:18.800Z,1.10
2018-06-01T04:03:46.625Z,1.40
2018-06-01T04:06:14.099Z,1.20
2018-06-01T04:08:41.697Z,1.30
2018-06-01T04:11:09.146Z,1.43
2018-06-01T04:13:36.640Z,2.10
2018-06-01T04:16:04.095Z,1.20
2018-06-01T04:18:31.555Z,1.40
2018-06-01T04:20:59.082Z,1.53
2018-06-01T04:23:26.845Z,1.50
2018-06-01T04:25:54.598Z,1.60
2018-06-01T04:28:22.254Z,1.60
2018-06-01T04:30:49.717Z,1.70
2018-06-01T04:33:17.197Z,2.03
2018-06-01T04:35:44.737Z,2.07
2018-06-01T04:38:12.390Z,2.23
2018-06-01T04:40:39.930Z,2.00
2018-06-01T04:43:07.417Z,2.43
2018-06-01T04:45:34.985Z,2.37
2018-06-01T04:48:02.444Z,2.13
2018-06-01T04:50:29.902Z,2.23
2018-06-01T04:52:57.459Z,2.00
2018-06-01T04:55:24.905Z,2.70
2018-06-01T04:57:52.377Z,2.50
2018-06-01T05:00:19.838Z,2.33
2018-06-01T05:02:47.288Z,2.50
2018-06-01T05:05:14.766Z,2.37
2018-06-01T05:07:42.213Z,2.57
2018-06-01T05:10:09.694Z,2.63
2018-06-01T05:12:37.206Z,2.23
2018-06-01T05:15:04.738Z,3.10
2018-06-01T05:17:32.430Z,2.77
2018-06-01T05:20:00.072Z,3.10
2018-06-01T05:22:27.655Z,3.00
2018-06-01T05:24:55.415Z,3.40
2018-06-01T05:27:22.985Z,3.60
2018-06-01T05:29:50.634Z,3.27
2018-06-01T05:32:18.282Z,3.20
2018-06-01T05:34:45.746Z,3.30
2018-06-01T05:37:13.214Z,3.93
2018-06-01T05:39:40.718Z,3.80
2018-06-01T05:42:08.181Z,4.00
2018-06-01T05:44:35.691Z,3.90
2018-06-01T05:47:03.146Z,4.00
2018-06-01T05:49:30.778Z,3.80
2018-06-01T05:51:58.261Z,4.00
2018-06-01T05:54:25.757Z,3.83
2018-06-01T05:56:53.201Z,3.80
2018-06-01T05:59:20.658Z,4.17
2018-06-01T06:01:48.139Z,4.03
2018-06-01T06:04:15.650Z,4.03
2018-06-01T06:06:43.124Z,4.30
2018-06-01T06:09:10.578Z,4.27
2018-06-01T06:11:38.073Z,4.97
2018-06-01T06:14:05.530Z,4.37
2018-06-01T06:16:33.006Z,4.33
2018-06-01T06:19:00.593Z,4.57
2018-06-01T06:21:28.060Z,4.40
2018-06-01T06:23:55.519Z,4.37
2018-06-01T06:26:23.013Z,5.30
2018-06-01T06:28:50.478Z,5.03
2018-06-01T06:31:17.981Z,4.70
2018-06-01T06:33:45.441Z,4.87
2018-06-01T06:36:12.930Z,5.00
2018-06-01T06:38:40.383Z,4.73
2018-06-01T06:41:08.543Z,5.30
2018-06-01T06:43:36.811Z,4.60
2018-06-01T06:46:04.562Z,4.90
2018-06-01T06:48:33.539Z,4.30
2018-06-01T06:51:00.997Z,5.03
2018-06-01T06:53:28.786Z,4.40
2018-06-01T06:55:56.452Z,4.63
2018-06-01T06:58:24.011Z,4.27
2018-06-01T07:00:51.775Z,4.10
2018-06-01T07:03:19.538Z,3.77
2018-06-01T07:05:47.204Z,3.87
2018-06-01T07:08:14.674Z,3.57
2018-06-01T07:10:42.142Z,4.00
2018-06-01T07:13:09.649Z,4.00
2018-06-01T07:15:37.417Z,3.77
2018-06-01T07:18:06.405Z,4.13
2018-06-01T07:20:34.058Z,3.60
2018-06-01T07:23:01.571Z,3.43
2018-06-01T07:25:29.041Z,3.33
2018-06-01T07:27:56.497Z,3.33
2018-06-01T07:30:23.995Z,3.37
2018-06-01T07:32:51.461Z,3.03
2018-06-01T07:35:19.110Z,3.40
2018-06-01T07:37:46.726Z,3.23
2018-06-01T07:40:14.289Z,3.07
2018-06-01T07:42:42.232Z,3.20
2018-06-01T07:45:09.750Z,3.10
2018-06-01T07:47:37.254Z,2.80
2018-06-01T07:50:04.761Z,3.20
2018-06-01T07:52:32.337Z,3.40
2018-06-01T07:55:00.010Z,3.40
2018-06-01T07:57:27.467Z,3.33
2018-06-01T07:59:55.053Z,3.00
2018-06-01T08:02:22.788Z,3.60
2018-06-01T08:04:51.767Z,3.50
2018-06-01T08:07:19.410Z,5.27
2018-06-01T08:09:47.029Z,2.90
2018-06-01T08:12:14.528Z,3.27
2018-06-01T08:14:42.251Z,3.00
2018-06-01T08:17:09.853Z,3.27
2018-06-01T08:19:37.337Z,3.67
2018-06-01T08:22:04.822Z,3.07
2018-06-01T08:24:32.281Z,3.10
2018-06-01T08:26:59.762Z,2.77
2018-06-01T08:29:27.298Z,4.27
2018-06-01T08:31:54.878Z,3.77
2018-06-01T08:34:22.333Z,3.20
2018-06-01T08:36:49.823Z,3.70
2018-06-01T08:39:17.337Z,3.50
2018-06-01T08:41:44.917Z,3.10
2018-06-01T08:44:12.477Z,3.07
2018-06-01T08:46:40.064Z,2.80
2018-06-01T08:49:07.593Z,2.93
2018-06-01T08:51:35.410Z,2.83
2018-06-01T08:54:02.947Z,2.90
2018-06-01T08:56:30.473Z,2.87
2018-06-01T08:58:58.073Z,2.50
2018-06-01T09:01:25.462Z,2.50
2018-06-01T09:03:53.145Z,2.77
2018-06-01T09:06:20.610Z,2.70
2018-06-01T09:08:48.068Z,2.63
2018-06-01T09:11:15.899Z,2.83
2018-06-01T09:13:43.415Z,2.63
2018-06-01T09:16:10.882Z,3.30
2018-06-01T09:18:38.645Z,2.57
2018-06-01T09:21:06.245Z,4.23
2018-06-01T09:23:33.738Z,3.20
2018-06-01T09:26:02.277Z,2.77
2018-06-01T09:28:30.100Z,2.87
2018-06-01T09:30:57.659Z,3.00
2018-06-01T09:33:25.186Z,2.90
2018-06-01T09:35:52.689Z,2.97
2018-06-01T09:38:20.384Z,3.10
2018-06-01T09:40:48.173Z,3.00
2018-06-01T09:43:15.682Z,3.07
2018-06-01T09:45:43.306Z,3.20
2018-06-01T09:48:10.823Z,3.30
2018-06-01T09:50:38.711Z,3.10
2018-06-01T09:53:06.479Z,3.40
2018-06-01T09:55:34.043Z,3.53
2018-06-01T09:58:01.560Z,3.13
2018-06-01T10:00:35.398Z,3.33
2018-06-01T10:03:02.865Z,3.07
2018-06-01T10:05:30.342Z,3.17
2018-06-01T10:07:57.827Z,2.80
2018-06-01T10:10:30.885Z,3.70
2018-06-01T10:12:58.345Z,2.60
2018-06-01T10:15:25.956Z,2.53
2018-06-01T10:17:53.409Z,3.10
2018-06-01T10:20:20.896Z,3.03
2018-06-01T10:22:48.353Z,3.00
2018-06-01T10:25:15.822Z,3.00
2018-06-01T10:27:43.313Z,3.30
2018-06-01T10:30:10.958Z,3.20
2018-06-01T10:32:40.714Z,3.17
2018-06-01T10:35:08.455Z,2.90
2018-06-01T10:37:37.762Z,3.10
2018-06-01T10:40:05.392Z,3.10
2018-06-01T10:42:32.865Z,3.73
2018-06-01T10:45:00.352Z,3.00
2018-06-01T10:47:27.881Z,3.47
2018-06-01T10:49:56.883Z,3.40
2018-06-01T10:52:25.225Z,3.70
2018-06-01T10:54:52.706Z,3.90
2018-06-01T10:57:20.182Z,3.70
2018-06-01T10:59:47.806Z,3.43
2018-06-01T11:02:15.389Z,3.33
2018-06-01T11:04:42.965Z,3.80
2018-06-01T11:07:11.092Z,3.40
2018-06-01T11:09:38.617Z,3.97
2018-06-01T11:12:06.452Z,3.40
2018-06-01T11:14:34.856Z,3.90
2018-06-01T11:17:03.816Z,3.40
2018-06-01T11:19:31.429Z,4.77
2018-06-01T11:21:58.977Z,3.73
2018-06-01T11:24:26.477Z,3.93
2018-06-01T11:26:54.431Z,3.57
2018-06-01T11:29:21.956Z,3.90
2018-06-01T11:31:49.506Z,3.80
2018-06-01T11:34:17.029Z,4.90
2018-06-01T11:36:44.514Z,3.67
2018-06-01T11:39:12.781Z,4.30
2018-06-01T11:41:40.298Z,3.80
2018-06-01T11:44:08.602Z,3.37
2018-06-01T11:46:36.074Z,3.53
2018-06-01T11:49:03.532Z,3.70
2018-06-01T11:51:31.167Z,3.60
2018-06-01T11:53:58.651Z,3.63
2018-06-01T11:56:26.356Z,3.77
2018-06-01T11:58:53.914Z,3.60
2018-06-01T12:01:21.386Z,3.80
2018-06-01T12:03:48.856Z,3.57
2018-06-01T12:06:16.548Z,3.60
2018-06-01T12:08:44.053Z,3.00
2018-06-01T12:11:11.707Z,3.10
2018-06-01T12:13:39.230Z,3.33
2018-06-01T12:16:06.703Z,2.93
2018-06-01T12:18:34.208Z,3.20
2018-06-01T12:21:01.676Z,3.17
2018-06-01T12:23:29.165Z,3.00
2018-06-01T12:25:56.842Z,3.10
2018-06-01T12:28:24.357Z,2.77
2018-06-01T12:30:51.825Z,2.73
2018-06-01T12:33:20.799Z,2.83
2018-06-01T12:35:48.634Z,3.00
2018-06-01T12:38:16.265Z,3.40
2018-06-01T12:40:43.741Z,3.20
2018-06-01T12:43:11.279Z,3.50
2018-06-01T12:45:38.825Z,3.20
2018-06-01T12:48:06.343Z,3.47
2018-06-01T12:50:33.850Z,3.23
2018-06-01T12:53:01.343Z,3.20
2018-06-01T12:55:28.886Z,3.23
2018-06-01T12:57:56.666Z,3.10
2018-06-01T13:00:24.414Z,3.17
2018-06-01T13:02:52.036Z,3.20
2018-06-01T13:05:19.538Z,3.00
2018-06-01T13:07:47.037Z,3.00
2018-06-01T13:10:14.526Z,3.13
2018-06-01T13:12:42.066Z,3.00
2018-06-01T13:15:09.666Z,3.53
2018-06-01T13:17:37.197Z,3.63
2018-06-01T13:20:04.698Z,3.40
2018-06-01T13:22:32.165Z,3.07
2018-06-01T13:24:59.665Z,3.40
2018-06-01T13:27:27.179Z,3.10
2018-06-01T13:29:54.756Z,3.50
2018-06-01T13:32:22.299Z,3.60
2018-06-01T13:34:50.022Z,3.90
2018-06-01T13:37:17.484Z,3.67
2018-06-01T13:39:44.990Z,4.40
2018-06-01T13:42:12.507Z,4.20
2018-06-01T13:44:40.910Z,3.83
2018-06-01T13:47:08.382Z,4.33
2018-06-01T13:49:35.962Z,3.37
2018-06-01T13:52:03.497Z,3.47
2018-06-01T13:54:31.101Z,3.50
2018-06-01T13:56:58.613Z,3.40
2018-06-01T13:59:26.089Z,3.50
2018-06-01T14:01:53.725Z,3.50
2018-06-01T14:04:21.306Z,3.00
2018-06-01T14:06:48.794Z,2.93
2018-06-01T14:09:16.335Z,3.13
2018-06-01T14:11:43.911Z,3.67
2018-06-01T14:14:11.390Z,3.00
2018-06-01T14:16:38.950Z,3.20
2018-06-01T14:19:06.701Z,3.10
2018-06-01T14:21:34.964Z,3.00
2018-06-01T14:24:02.679Z,3.80
2018-06-01T14:26:30.297Z,3.30
2018-06-01T14:28:57.763Z,3.00
2018-06-01T14:31:25.505Z,2.90
2018-06-01T14:33:53.145Z,2.93
2018-06-01T14:36:20.636Z,3.20
2018-06-01T14:38:48.142Z,3.20
2018-06-01T14:41:15.669Z,3.10
2018-06-01T14:43:43.193Z,2.80
2018-06-01T14:46:10.707Z,2.77
2018-06-01T14:48:38.385Z,2.97
2018-06-01T14:51:05.909Z,3.30
2018-06-01T14:53:33.522Z,2.90
2018-06-01T14:56:00.986Z,3.20
2018-06-01T14:58:28.521Z,2.90
2018-06-01T15:00:56.232Z,2.80
2018-06-01T15:03:23.862Z,6.10
2018-06-01T15:05:51.443Z,3.20
2018-06-01T15:08:19.163Z,3.40
2018-06-01T15:10:46.717Z,3.30
2018-06-01T15:13:14.428Z,3.00
2018-06-01T15:15:43.610Z,2.83
2018-06-01T15:18:11.180Z,2.90
2018-06-01T15:20:40.157Z,2.87
2018-06-01T15:23:07.830Z,3.13
2018-06-01T15:25:35.388Z,2.83
2018-06-01T15:28:03.044Z,3.07
2018-06-01T15:30:30.525Z,3.00
2018-06-01T15:32:58.073Z,3.00
2018-06-01T15:35:26.340Z,3.10
2018-06-01T15:37:53.906Z,3.00
2018-06-01T15:40:22.877Z,3.00
2018-06-01T15:42:50.346Z,3.50
2018-06-01T15:45:17.801Z,3.37
2018-06-01T15:47:45.573Z,3.30
2018-06-01T15:50:14.554Z,2.73
2018-06-01T15:52:42.009Z,2.90
2018-06-01T15:55:09.486Z,2.93
2018-06-01T15:57:37.341Z,3.00
2018-06-01T16:00:05.010Z,4.67
2018-06-01T16:02:33.349Z,3.13
2018-06-01T16:05:00.849Z,3.03
2018-06-01T16:07:29.848Z,3.30
2018-06-01T16:09:58.222Z,3.30
2018-06-01T16:12:27.185Z,3.37
2018-06-01T16:14:54.665Z,3.00
2018-06-01T16:17:22.130Z,2.80
2018-06-01T16:19:49.581Z,2.80
2018-06-01T16:22:17.037Z,3.00
2018-06-01T16:24:44.506Z,3.20
2018-06-01T16:27:11.957Z,3.30
2018-06-01T16:29:39.413Z,2.77
2018-06-01T16:32:06.876Z,2.93
2018-06-01T16:34:34.378Z,3.17
2018-06-01T16:37:01.846Z,2.97
2018-06-01T16:39:29.300Z,3.23
2018-06-01T16:41:56.774Z,3.10
2018-06-01T16:44:24.246Z,3.17
2018-06-01T16:46:51.722Z,3.30
2018-06-01T16:49:19.180Z,3.37
2018-06-01T16:51:46.641Z,3.10
2018-06-01T16:54:14.158Z,5.87
2018-06-01T16:56:41.638Z,4.50
2018-06-01T16:59:09.093Z,4.70
2018-06-01T17:01:36.562Z,4.80
2018-06-01T17:04:04.022Z,6.97
2018-06-01T17:06:31.611Z,6.87
2018-06-01T17:08:59.061Z,5.67
2018-06-01T17:11:26.548Z,4.93
2018-06-01T17:13:54.107Z,6.20
2018-06-01T17:16:21.717Z,3.67
2018-06-01T17:18:50.678Z,3.93
2018-06-01T17:21:18.152Z,3.60
2018-06-01T17:23:45.612Z,3.90
2018-06-01T17:26:13.069Z,3.57
2018-06-01T17:28:41.439Z,3.60
2018-06-01T17:31:08.908Z,3.93
2018-06-01T17:33:36.365Z,3.80
2018-06-01T17:36:03.848Z,3.13
2018-06-01T17:38:31.322Z,3.50
2018-06-01T17:40:58.761Z,3.20
2018-06-01T17:43:26.225Z,3.00
2018-06-01T17:45:53.677Z,3.33
2018-06-01T17:48:21.138Z,4.07
2018-06-01T17:50:48.585Z,3.80
2018-06-01T17:53:16.058Z,3.70
2018-06-01T17:55:43.501Z,2.60
2018-06-01T17:58:10.972Z,3.00
2018-06-01T18:00:38.430Z,3.40
2018-06-01T18:03:05.890Z,2.93
2018-06-01T18:05:33.411Z,6.03
2018-06-01T18:08:01.085Z,3.43
2018-06-01T18:10:28.533Z,3.40
2018-06-01T18:12:56.009Z,3.10
2018-06-01T18:15:23.473Z,3.07
2018-06-01T18:17:50.938Z,3.20
2018-06-01T18:20:18.389Z,3.10
2018-06-01T18:22:45.855Z,3.40
2018-06-01T18:25:13.310Z,3.40
2018-06-01T18:27:40.761Z,3.20
2018-06-01T18:30:08.229Z,3.10
2018-06-01T18:32:35.689Z,3.70
2018-06-01T18:35:03.164Z,3.50
2018-06-01T18:37:30.619Z,3.40
2018-06-01T18:39:58.086Z,3.73
2018-06-01T18:42:25.537Z,3.80
2018-06-01T18:44:53.005Z,3.20
2018-06-01T18:47:20.457Z,3.33
2018-06-01T18:49:47.925Z,3.27
2018-06-01T18:52:15.378Z,3.10
2018-06-01T18:54:42.839Z,3.30
2018-06-01T18:57:10.293Z,3.50
2018-06-01T18:59:37.878Z,3.90
2018-06-01T19:02:05.542Z,3.60
2018-06-01T19:04:32.945Z,3.10
2018-06-01T19:07:00.425Z,3.60
2018-06-01T19:09:28.113Z,3.57
2018-06-01T19:11:55.577Z,3.60
2018-06-01T19:14:23.030Z,3.60
2018-06-01T19:16:50.506Z,3.30
2018-06-01T19:19:17.961Z,3.33
2018-06-01T19:21:45.429Z,3.50
2018-06-01T19:24:12.893Z,3.30
2018-06-01T19:26:40.378Z,3.50
2018-06-01T19:29:07.861Z,3.93
2018-06-01T19:31:35.331Z,4.20
2018-06-01T19:34:02.794Z,4.10
2018-06-01T19:36:31.042Z,4.40
2018-06-01T19:38:58.525Z,4.03
2018-06-01T19:41:25.980Z,3.30
2018-06-01T19:43:53.442Z,3.63
2018-06-01T19:46:20.936Z,3.57
2018-06-01T19:48:48.672Z,3.70
2018-06-01T19:51:16.325Z,3.53
2018-06-01T19:53:43.785Z,3.47
2018-06-01T19:56:11.245Z,3.40
2018-06-01T19:58:38.713Z,3.47
2018-06-01T20:01:06.174Z,4.07
2018-06-01T20:03:33.653Z,3.43
2018-06-01T20:06:01.110Z,3.70
2018-06-01T20:08:28.585Z,3.60
2018-06-01T20:10:56.057Z,3.60
2018-06-01T20:13:23.542Z,3.80
2018-06-01T20:15:50.970Z,3.63
2018-06-01T20:18:18.438Z,3.90
2018-06-01T20:20:45.939Z,3.83
2018-06-01T20:23:13.393Z,3.70
2018-06-01T20:25:40.850Z,3.70
2018-06-01T20:28:08.334Z,4.07
2018-06-01T20:30:35.818Z,4.00
2018-06-01T20:33:03.275Z,4.10
2018-06-01T20:35:30.745Z,4.53
2018-06-01T20:37:58.214Z,4.37
2018-06-01T20:40:26.445Z,4.43
2018-06-01T20:42:53.919Z,4.60
2018-06-01T20:45:21.392Z,4.60
2018-06-01T20:47:48.845Z,4.13
2018-06-01T20:50:16.339Z,4.40
2018-06-01T20:52:43.801Z,4.10
2018-06-01T20:55:11.261Z,4.37
2018-06-01T20:57:38.717Z,4.40
2018-06-01T21:00:06.195Z,4.30
2018-06-01T21:02:33.654Z,4.30
2018-06-01T21:05:01.110Z,4.30
2018-06-01T21:07:28.577Z,4.30
2018-06-01T21:09:56.096Z,4.17
2018-06-01T21:12:24.317Z,4.33
2018-06-01T21:14:51.786Z,4.40
2018-06-01T21:17:19.245Z,4.20
2018-06-01T21:19:46.713Z,4.50
2018-06-01T21:22:14.175Z,5.10
2018-06-01T21:24:41.685Z,4.23
2018-06-01T21:27:09.155Z,4.80
2018-06-01T21:29:36.605Z,4.33
2018-06-01T21:32:04.077Z,4.43
2018-06-01T21:34:31.541Z,4.53
2018-06-01T21:36:59.005Z,4.30
2018-06-01T21:39:26.589Z,4.50
2018-06-01T21:41:54.146Z,4.50
2018-06-01T21:44:21.778Z,3.80
2018-06-01T21:46:49.269Z,3.90
2018-06-01T21:49:16.834Z,4.00
2018-06-01T21:51:44.305Z,4.13
2018-06-01T21:54:11.762Z,4.22
2018-06-01T21:56:39.226Z,3.90
2018-06-01T21:59:06.678Z,4.20
2018-06-01T22:01:34.133Z,4.17
2018-06-01T22:04:01.598Z,4.03
2018-06-01T22:06:29.069Z,3.63
2018-06-01T22:08:56.541Z,4.00
2018-06-01T22:11:23.993Z,3.57
2018-06-01T22:13:51.450Z,4.20
2018-06-01T22:16:19.193Z,3.47
2018-06-01T22:18:46.596Z,3.50
2018-06-01T22:21:14.073Z,4.07
2018-06-01T22:23:42.303Z,4.30
2018-06-01T22:26:09.762Z,4.10
2018-06-01T22:28:37.229Z,4.50
2018-06-01T22:31:04.734Z,4.50
2018-06-01T22:33:32.205Z,4.40
2018-06-01T22:35:59.660Z,4.77
2018-06-01T22:38:27.140Z,4.40
2018-06-01T22:40:54.585Z,4.10
2018-06-01T22:43:22.065Z,4.37
2018-06-01T22:45:49.525Z,4.57
2018-06-01T22:48:16.997Z,4.27
2018-06-01T22:50:44.455Z,4.40
2018-06-01T22:53:11.930Z,4.80
2018-06-01T22:55:40.366Z,4.83
2018-06-01T22:58:07.831Z,4.23
2018-06-01T23:00:41.137Z,4.67
2018-06-01T23:03:08.617Z,4.40
2018-06-01T23:05:36.837Z,4.43
2018-06-01T23:08:04.293Z,4.70
2018-06-01T23:10:31.769Z,4.00
2018-06-01T23:12:59.225Z,4.00
2018-06-01T23:15:27.457Z,3.93
2018-06-01T23:17:54.917Z,3.80
2018-06-01T23:20:22.393Z,3.83
2018-06-01T23:22:49.849Z,3.70
2018-06-01T23:25:17.314Z,3.70
2018-06-01T23:27:44.781Z,3.90
2018-06-01T23:30:12.242Z,4.17
2018-06-01T23:32:39.705Z,4.10
2018-06-01T23:35:07.185Z,3.77
2018-06-01T23:37:34.641Z,4.20
2018-06-01T23:40:02.105Z,3.90
2018-06-01T23:42:29.562Z,3.87
2018-06-01T23:44:57.030Z,4.10
2018-06-01T23:47:24.493Z,4.00
2018-06-01T23:49:51.970Z,3.77
2018-06-01T23:52:19.425Z,3.97
2018-06-01T23:54:46.882Z,3.43
2018-06-01T23:57:14.353Z,4.13
2018-06-01T23:59:41.823Z,3.90
